sensor_id;sensor_type;location;lat;lon;timestamp;P1;durP1;ratioP1;P2;durP2;ratioP2
49193;SDS011;35029;50.804;12.866;2022-10-04T00:04:31;8.23;;;2.35;;
49193;SDS011;35029;50.804;12.866;2022-10-04T00:07:02;7.30;;;2.70;;
49193;SDS011;35029;50.804;12.866;2022-10-04T00:09:39;8.23;;;3.08;;
49193;SDS011;35029;50.804;12.866;2022-10-04T00:12:18;5.53;;;2.50;;
49193;SDS011;35029;50.804;12.866;2022-10-04T00:14:47;7.10;;;3.17;;
49193;SDS011;35029;50.804;12.866;2022-10-04T00:17:19;7.43;;;2.90;;
49193;SDS011;35029;50.804;12.866;2022-10-04T00:19:49;8.00;;;2.80;;
49193;SDS011;35029;50.804;12.866;2022-10-04T00:22:17;12.13;;;3.03;;
49193;SDS011;35029;50.804;12.866;2022-10-04T00:25:14;11.98;;;2.60;;
49193;SDS011;35029;50.804;12.866;2022-10-04T00:30:34;8.25;;;2.50;;
49193;SDS011;35029;50.804;12.866;2022-10-04T00:33:02;7.55;;;2.50;;
49193;SDS011;35029;50.804;12.866;2022-10-04T00:40:33;8.35;;;3.00;;
49193;SDS011;35029;50.804;12.866;2022-10-04T00:43:03;9.52;;;2.88;;
49193;SDS011;35029;50.804;12.866;2022-10-04T00:45:51;9.50;;;3.03;;
49193;SDS011;35029;50.804;12.866;2022-10-04T00:48:26;7.40;;;2.63;;
49193;SDS011;35029;50.804;12.866;2022-10-04T00:50:57;8.90;;;2.80;;
49193;SDS011;35029;50.804;12.866;2022-10-04T00:56:03;9.48;;;2.60;;
49193;SDS011;35029;50.804;12.866;2022-10-04T00:58:37;4.97;;;2.20;;
49193;SDS011;35029;50.804;12.866;2022-10-04T01:01:11;7.82;;;2.88;;
49193;SDS011;35029;50.804;12.866;2022-10-04T01:03:38;9.90;;;3.05;;
49193;SDS011;35029;50.804;12.866;2022-10-04T01:06:08;11.50;;;3.55;;
49193;SDS011;35029;50.804;12.866;2022-10-04T01:08:39;9.05;;;3.05;;
49193;SDS011;35029;50.804;12.866;2022-10-04T01:11:27;8.23;;;2.58;;
49193;SDS011;35029;50.804;12.866;2022-10-04T01:16:35;5.38;;;3.05;;
49193;SDS011;35029;50.804;12.866;2022-10-04T01:21:46;6.70;;;2.63;;
49193;SDS011;35029;50.804;12.866;2022-10-04T01:24:21;7.78;;;2.63;;
49193;SDS011;35029;50.804;12.866;2022-10-04T01:26:47;10.25;;;2.70;;
49193;SDS011;35029;50.804;12.866;2022-10-04T01:29:18;3.92;;;2.15;;
49193;SDS011;35029;50.804;12.866;2022-10-04T01:31:55;8.50;;;2.45;;
49193;SDS011;35029;50.804;12.866;2022-10-04T01:34:23;8.52;;;2.30;;
49193;SDS011;35029;50.804;12.866;2022-10-04T01:36:55;7.07;;;2.22;;
49193;SDS011;35029;50.804;12.866;2022-10-04T01:39:23;11.35;;;3.25;;
49193;SDS011;35029;50.804;12.866;2022-10-04T01:44:55;10.75;;;2.63;;
49193;SDS011;35029;50.804;12.866;2022-10-04T01:47:25;6.18;;;2.55;;
49193;SDS011;35029;50.804;12.866;2022-10-04T01:49:57;8.88;;;3.20;;
49193;SDS011;35029;50.804;12.866;2022-10-04T01:52:34;7.15;;;2.38;;
49193;SDS011;35029;50.804;12.866;2022-10-04T01:55:14;3.97;;;2.00;;
49193;SDS011;35029;50.804;12.866;2022-10-04T01:57:46;9.40;;;2.80;;
49193;SDS011;35029;50.804;12.866;2022-10-04T02:00:16;8.63;;;2.90;;
49193;SDS011;35029;50.804;12.866;2022-10-04T02:02:50;8.88;;;2.63;;
49193;SDS011;35029;50.804;12.866;2022-10-04T02:05:41;7.18;;;2.97;;
49193;SDS011;35029;50.804;12.866;2022-10-04T02:08:14;7.18;;;2.47;;
49193;SDS011;35029;50.804;12.866;2022-10-04T02:10:42;8.85;;;2.78;;
49193;SDS011;35029;50.804;12.866;2022-10-04T02:13:13;12.13;;;2.58;;
49193;SDS011;35029;50.804;12.866;2022-10-04T02:15:43;7.35;;;2.72;;
49193;SDS011;35029;50.804;12.866;2022-10-04T02:18:13;6.88;;;2.22;;
49193;SDS011;35029;50.804;12.866;2022-10-04T02:20:42;14.07;;;3.08;;
49193;SDS011;35029;50.804;12.866;2022-10-04T02:23:09;6.05;;;2.05;;
49193;SDS011;35029;50.804;12.866;2022-10-04T02:25:37;7.18;;;3.17;;
49193;SDS011;35029;50.804;12.866;2022-10-04T02:28:08;7.22;;;2.40;;
49193;SDS011;35029;50.804;12.866;2022-10-04T02:30:35;11.00;;;3.00;;
49193;SDS011;35029;50.804;12.866;2022-10-04T02:33:02;5.30;;;2.50;;
49193;SDS011;35029;50.804;12.866;2022-10-04T02:35:29;7.50;;;2.13;;
49193;SDS011;35029;50.804;12.866;2022-10-04T02:38:24;4.28;;;2.25;;
49193;SDS011;35029;50.804;12.866;2022-10-04T02:49:27;6.30;;;2.10;;
49193;SDS011;35029;50.804;12.866;2022-10-04T02:52:09;5.85;;;2.50;;
49193;SDS011;35029;50.804;12.866;2022-10-04T02:57:28;6.47;;;2.28;;
49193;SDS011;35029;50.804;12.866;2022-10-04T03:00:09;7.63;;;2.22;;
49193;SDS011;35029;50.804;12.866;2022-10-04T03:05:46;7.82;;;2.95;;
49193;SDS011;35029;50.804;12.866;2022-10-04T03:08:26;5.07;;;2.00;;
49193;SDS011;35029;50.804;12.866;2022-10-04T03:10:55;3.92;;;1.92;;
49193;SDS011;35029;50.804;12.866;2022-10-04T03:13:23;8.77;;;2.70;;
49193;SDS011;35029;50.804;12.866;2022-10-04T03:15:50;6.78;;;2.53;;
49193;SDS011;35029;50.804;12.866;2022-10-04T03:18:16;5.40;;;2.17;;
49193;SDS011;35029;50.804;12.866;2022-10-04T03:20:43;12.52;;;2.92;;
49193;SDS011;35029;50.804;12.866;2022-10-04T03:23:10;8.60;;;3.33;;
49193;SDS011;35029;50.804;12.866;2022-10-04T03:25:43;4.63;;;2.30;;
49193;SDS011;35029;50.804;12.866;2022-10-04T03:28:13;8.40;;;2.63;;
49193;SDS011;35029;50.804;12.866;2022-10-04T03:30:41;8.50;;;3.28;;
49193;SDS011;35029;50.804;12.866;2022-10-04T03:33:13;7.05;;;2.60;;
49193;SDS011;35029;50.804;12.866;2022-10-04T03:35:45;4.28;;;1.98;;
49193;SDS011;35029;50.804;12.866;2022-10-04T03:38:13;6.22;;;2.63;;
49193;SDS011;35029;50.804;12.866;2022-10-04T03:40:40;7.78;;;2.45;;
49193;SDS011;35029;50.804;12.866;2022-10-04T03:43:11;8.15;;;2.92;;
49193;SDS011;35029;50.804;12.866;2022-10-04T03:45:38;9.15;;;2.50;;
49193;SDS011;35029;50.804;12.866;2022-10-04T03:48:06;5.05;;;2.40;;
49193;SDS011;35029;50.804;12.866;2022-10-04T03:50:38;5.88;;;2.08;;
49193;SDS011;35029;50.804;12.866;2022-10-04T03:53:13;5.75;;;2.38;;
49193;SDS011;35029;50.804;12.866;2022-10-04T03:55:48;9.00;;;2.80;;
49193;SDS011;35029;50.804;12.866;2022-10-04T03:58:14;9.02;;;2.83;;
49193;SDS011;35029;50.804;12.866;2022-10-04T04:00:43;6.07;;;2.30;;
49193;SDS011;35029;50.804;12.866;2022-10-04T04:03:23;4.30;;;2.45;;
49193;SDS011;35029;50.804;12.866;2022-10-04T04:05:53;7.80;;;3.85;;
49193;SDS011;35029;50.804;12.866;2022-10-04T04:11:05;5.85;;;2.60;;
49193;SDS011;35029;50.804;12.866;2022-10-04T04:16:19;8.10;;;2.83;;
49193;SDS011;35029;50.804;12.866;2022-10-04T04:18:47;4.10;;;2.58;;
49193;SDS011;35029;50.804;12.866;2022-10-04T04:21:16;7.15;;;2.50;;
49193;SDS011;35029;50.804;12.866;2022-10-04T04:23:46;12.55;;;2.40;;
49193;SDS011;35029;50.804;12.866;2022-10-04T04:28:55;4.43;;;2.38;;
49193;SDS011;35029;50.804;12.866;2022-10-04T04:31:30;7.88;;;3.15;;
49193;SDS011;35029;50.804;12.866;2022-10-04T04:34:04;9.38;;;2.85;;
49193;SDS011;35029;50.804;12.866;2022-10-04T04:36:39;9.57;;;3.10;;
49193;SDS011;35029;50.804;12.866;2022-10-04T04:39:27;6.88;;;2.95;;
49193;SDS011;35029;50.804;12.866;2022-10-04T04:42:00;10.02;;;3.05;;
49193;SDS011;35029;50.804;12.866;2022-10-04T04:44:38;3.55;;;2.15;;
49193;SDS011;35029;50.804;12.866;2022-10-04T04:47:42;6.88;;;2.55;;
49193;SDS011;35029;50.804;12.866;2022-10-04T04:50:14;5.18;;;2.50;;
49193;SDS011;35029;50.804;12.866;2022-10-04T04:52:44;5.30;;;2.30;;
49193;SDS011;35029;50.804;12.866;2022-10-04T04:55:23;6.65;;;2.85;;
49193;SDS011;35029;50.804;12.866;2022-10-04T04:57:52;6.88;;;3.13;;
49193;SDS011;35029;50.804;12.866;2022-10-04T05:00:20;5.28;;;2.38;;
49193;SDS011;35029;50.804;12.866;2022-10-04T05:02:54;6.23;;;2.40;;
49193;SDS011;35029;50.804;12.866;2022-10-04T05:05:23;6.38;;;2.42;;
49193;SDS011;35029;50.804;12.866;2022-10-04T05:08:03;4.60;;;2.45;;
49193;SDS011;35029;50.804;12.866;2022-10-04T05:10:36;10.07;;;3.35;;
49193;SDS011;35029;50.804;12.866;2022-10-04T05:13:07;10.02;;;3.38;;
49193;SDS011;35029;50.804;12.866;2022-10-04T05:15:34;6.80;;;2.78;;
49193;SDS011;35029;50.804;12.866;2022-10-04T05:18:12;6.25;;;2.20;;
49193;SDS011;35029;50.804;12.866;2022-10-04T05:20:49;8.77;;;2.40;;
49193;SDS011;35029;50.804;12.866;2022-10-04T05:23:17;5.65;;;2.47;;
49193;SDS011;35029;50.804;12.866;2022-10-04T05:25:43;9.00;;;2.92;;
49193;SDS011;35029;50.804;12.866;2022-10-04T05:28:09;9.50;;;2.75;;
49193;SDS011;35029;50.804;12.866;2022-10-04T05:30:43;5.38;;;2.58;;
49193;SDS011;35029;50.804;12.866;2022-10-04T05:33:14;10.95;;;3.92;;
49193;SDS011;35029;50.804;12.866;2022-10-04T05:35:53;9.13;;;4.28;;
49193;SDS011;35029;50.804;12.866;2022-10-04T05:41:35;7.32;;;3.38;;
49193;SDS011;35029;50.804;12.866;2022-10-04T05:47:13;7.00;;;3.08;;
49193;SDS011;35029;50.804;12.866;2022-10-04T05:49:40;6.53;;;2.70;;
49193;SDS011;35029;50.804;12.866;2022-10-04T05:52:29;8.45;;;2.92;;
49193;SDS011;35029;50.804;12.866;2022-10-04T05:55:33;7.20;;;2.45;;
49193;SDS011;35029;50.804;12.866;2022-10-04T05:58:00;4.38;;;2.33;;
49193;SDS011;35029;50.804;12.866;2022-10-04T06:06:23;5.65;;;2.55;;
49193;SDS011;35029;50.804;12.866;2022-10-04T06:22:24;5.93;;;2.65;;
49193;SDS011;35029;50.804;12.866;2022-10-04T06:24:54;9.55;;;3.58;;
49193;SDS011;35029;50.804;12.866;2022-10-04T06:30:13;6.05;;;2.78;;
49193;SDS011;35029;50.804;12.866;2022-10-04T06:46:34;9.77;;;3.10;;
49193;SDS011;35029;50.804;12.866;2022-10-04T06:55:03;12.13;;;2.92;;
49193;SDS011;35029;50.804;12.866;2022-10-04T07:00:40;6.60;;;2.70;;
49193;SDS011;35029;50.804;12.866;2022-10-04T07:03:23;6.90;;;3.03;;
49193;SDS011;35029;50.804;12.866;2022-10-04T07:05:57;5.45;;;2.70;;
49193;SDS011;35029;50.804;12.866;2022-10-04T07:08:47;6.68;;;2.80;;
49193;SDS011;35029;50.804;12.866;2022-10-04T07:11:25;5.82;;;2.65;;
49193;SDS011;35029;50.804;12.866;2022-10-04T07:14:05;11.90;;;3.67;;
49193;SDS011;35029;50.804;12.866;2022-10-04T07:30:15;6.03;;;2.10;;
49193;SDS011;35029;50.804;12.866;2022-10-04T07:32:46;10.40;;;3.22;;
49193;SDS011;35029;50.804;12.866;2022-10-04T07:35:34;11.55;;;2.90;;
49193;SDS011;35029;50.804;12.866;2022-10-04T07:38:09;7.78;;;2.75;;
49193;SDS011;35029;50.804;12.866;2022-10-04T07:41:18;7.07;;;2.72;;
49193;SDS011;35029;50.804;12.866;2022-10-04T07:43:50;5.60;;;2.38;;
49193;SDS011;35029;50.804;12.866;2022-10-04T07:49:15;6.82;;;2.80;;
49193;SDS011;35029;50.804;12.866;2022-10-04T07:57:20;7.97;;;3.47;;
49193;SDS011;35029;50.804;12.866;2022-10-04T08:03:13;13.30;;;3.42;;
49193;SDS011;35029;50.804;12.866;2022-10-04T08:06:12;8.85;;;3.03;;
49193;SDS011;35029;50.804;12.866;2022-10-04T08:11:25;7.30;;;2.80;;
49193;SDS011;35029;50.804;12.866;2022-10-04T08:16:53;5.93;;;2.40;;
49193;SDS011;35029;50.804;12.866;2022-10-04T08:19:35;8.00;;;2.42;;
49193;SDS011;35029;50.804;12.866;2022-10-04T08:22:51;4.85;;;2.20;;
49193;SDS011;35029;50.804;12.866;2022-10-04T08:25:00;12.77;;;2.80;;
49193;SDS011;35029;50.804;12.866;2022-10-04T08:30:08;7.10;;;3.00;;
49193;SDS011;35029;50.804;12.866;2022-10-04T08:32:53;3.65;;;2.58;;
49193;SDS011;35029;50.804;12.866;2022-10-04T08:35:31;6.85;;;2.65;;
49193;SDS011;35029;50.804;12.866;2022-10-04T08:38:09;3.83;;;2.60;;
49193;SDS011;35029;50.804;12.866;2022-10-04T08:50:12;8.88;;;2.92;;
49193;SDS011;35029;50.804;12.866;2022-10-04T08:56:00;7.80;;;2.47;;
49193;SDS011;35029;50.804;12.866;2022-10-04T08:59:31;7.55;;;2.78;;
49193;SDS011;35029;50.804;12.866;2022-10-04T09:02:05;7.20;;;2.78;;
49193;SDS011;35029;50.804;12.866;2022-10-04T09:10:13;8.25;;;2.90;;
49193;SDS011;35029;50.804;12.866;2022-10-04T09:15:51;6.60;;;2.22;;
49193;SDS011;35029;50.804;12.866;2022-10-04T09:29:31;6.25;;;2.00;;
49193;SDS011;35029;50.804;12.866;2022-10-04T09:42:57;9.73;;;2.92;;
49193;SDS011;35029;50.804;12.866;2022-10-04T09:45:47;7.95;;;2.60;;
49193;SDS011;35029;50.804;12.866;2022-10-04T09:51:16;7.22;;;2.30;;
49193;SDS011;35029;50.804;12.866;2022-10-04T10:02:17;9.93;;;2.25;;
49193;SDS011;35029;50.804;12.866;2022-10-04T10:05:19;4.93;;;2.40;;
49193;SDS011;35029;50.804;12.866;2022-10-04T10:08:12;7.90;;;2.70;;
49193;SDS011;35029;50.804;12.866;2022-10-04T10:10:48;8.73;;;2.97;;
49193;SDS011;35029;50.804;12.866;2022-10-04T10:21:56;9.60;;;2.13;;
49193;SDS011;35029;50.804;12.866;2022-10-04T10:30:22;6.22;;;2.03;;
49193;SDS011;35029;50.804;12.866;2022-10-04T10:33:04;5.85;;;1.63;;
49193;SDS011;35029;50.804;12.866;2022-10-04T10:40:50;5.35;;;1.77;;
49193;SDS011;35029;50.804;12.866;2022-10-04T11:30:18;6.15;;;1.50;;
49193;SDS011;35029;50.804;12.866;2022-10-04T11:56:26;7.03;;;1.95;;
49193;SDS011;35029;50.804;12.866;2022-10-04T12:10:41;5.63;;;1.98;;
49193;SDS011;35029;50.804;12.866;2022-10-04T12:13:13;3.25;;;1.35;;
49193;SDS011;35029;50.804;12.866;2022-10-04T12:24:32;3.10;;;1.55;;
49193;SDS011;35029;50.804;12.866;2022-10-04T12:30:15;3.70;;;1.60;;
49193;SDS011;35029;50.804;12.866;2022-10-04T12:35:59;4.65;;;1.73;;
49193;SDS011;35029;50.804;12.866;2022-10-04T12:50:20;2.63;;;0.90;;
49193;SDS011;35029;50.804;12.866;2022-10-04T12:58:25;2.67;;;0.90;;
49193;SDS011;35029;50.804;12.866;2022-10-04T13:01:25;6.68;;;1.30;;
49193;SDS011;35029;50.804;12.866;2022-10-04T13:10:14;2.10;;;1.10;;
49193;SDS011;35029;50.804;12.866;2022-10-04T13:12:26;2.75;;;1.27;;
49193;SDS011;35029;50.804;12.866;2022-10-04T13:20:24;2.60;;;1.25;;
49193;SDS011;35029;50.804;12.866;2022-10-04T13:26:26;5.20;;;1.45;;
49193;SDS011;35029;50.804;12.866;2022-10-04T13:31:51;5.35;;;1.48;;
49193;SDS011;35029;50.804;12.866;2022-10-04T13:34:30;5.18;;;1.70;;
49193;SDS011;35029;50.804;12.866;2022-10-04T13:37:00;2.60;;;1.60;;
49193;SDS011;35029;50.804;12.866;2022-10-04T14:05:56;3.25;;;1.70;;
49193;SDS011;35029;50.804;12.866;2022-10-04T14:16:11;2.35;;;0.98;;
49193;SDS011;35029;50.804;12.866;2022-10-04T14:30:15;4.10;;;2.42;;
49193;SDS011;35029;50.804;12.866;2022-10-04T14:35:46;2.47;;;1.15;;
49193;SDS011;35029;50.804;12.866;2022-10-04T14:38:24;4.72;;;1.38;;
49193;SDS011;35029;50.804;12.866;2022-10-04T14:41:26;2.28;;;0.85;;
49193;SDS011;35029;50.804;12.866;2022-10-04T14:52:06;3.22;;;1.15;;
49193;SDS011;35029;50.804;12.866;2022-10-04T14:54:55;11.13;;;1.13;;
49193;SDS011;35029;50.804;12.866;2022-10-04T15:17:03;4.55;;;1.30;;
49193;SDS011;35029;50.804;12.866;2022-10-04T15:19:35;4.35;;;1.60;;
49193;SDS011;35029;50.804;12.866;2022-10-04T15:22:29;4.05;;;1.63;;
49193;SDS011;35029;50.804;12.866;2022-10-04T15:25:35;1.52;;;1.08;;
49193;SDS011;35029;50.804;12.866;2022-10-04T15:30:52;2.17;;;1.60;;
49193;SDS011;35029;50.804;12.866;2022-10-04T15:38:28;7.93;;;2.05;;
49193;SDS011;35029;50.804;12.866;2022-10-04T15:41:07;4.30;;;1.52;;
49193;SDS011;35029;50.804;12.866;2022-10-04T15:44:13;3.10;;;1.30;;
49193;SDS011;35029;50.804;12.866;2022-10-04T15:47:08;2.53;;;1.60;;
49193;SDS011;35029;50.804;12.866;2022-10-04T15:58:07;5.35;;;1.80;;
49193;SDS011;35029;50.804;12.866;2022-10-04T16:03:32;3.97;;;1.52;;
49193;SDS011;35029;50.804;12.866;2022-10-04T16:06:52;3.88;;;1.83;;
49193;SDS011;35029;50.804;12.866;2022-10-04T16:09:18;4.32;;;2.03;;
49193;SDS011;35029;50.804;12.866;2022-10-04T16:26:00;8.98;;;4.78;;
49193;SDS011;35029;50.804;12.866;2022-10-04T16:34:06;4.10;;;2.10;;
49193;SDS011;35029;50.804;12.866;2022-10-04T16:36:50;7.20;;;2.78;;
49193;SDS011;35029;50.804;12.866;2022-10-04T16:39:38;4.68;;;2.00;;
49193;SDS011;35029;50.804;12.866;2022-10-04T17:08:04;7.03;;;3.95;;
49193;SDS011;35029;50.804;12.866;2022-10-04T17:11:00;9.77;;;3.70;;
49193;SDS011;35029;50.804;12.866;2022-10-04T17:13:55;4.88;;;2.90;;
49193;SDS011;35029;50.804;12.866;2022-10-04T17:16:37;4.85;;;3.10;;
49193;SDS011;35029;50.804;12.866;2022-10-04T17:27:49;3.42;;;2.35;;
49193;SDS011;35029;50.804;12.866;2022-10-04T17:30:25;3.13;;;2.42;;
49193;SDS011;35029;50.804;12.866;2022-10-04T17:35:59;4.30;;;3.05;;
49193;SDS011;35029;50.804;12.866;2022-10-04T17:39:40;4.45;;;3.38;;
49193;SDS011;35029;50.804;12.866;2022-10-04T17:42:18;4.40;;;3.65;;
49193;SDS011;35029;50.804;12.866;2022-10-04T17:48:08;7.60;;;5.05;;
49193;SDS011;35029;50.804;12.866;2022-10-04T17:51:02;7.65;;;5.88;;
49193;SDS011;35029;50.804;12.866;2022-10-04T17:55:11;7.97;;;5.78;;
49193;SDS011;35029;50.804;12.866;2022-10-04T17:57:29;6.20;;;4.50;;
49193;SDS011;35029;50.804;12.866;2022-10-04T18:00:06;6.07;;;4.57;;
49193;SDS011;35029;50.804;12.866;2022-10-04T18:05:56;7.80;;;4.68;;
49193;SDS011;35029;50.804;12.866;2022-10-04T18:11:17;7.80;;;5.30;;
49193;SDS011;35029;50.804;12.866;2022-10-04T18:14:01;7.85;;;4.18;;
49193;SDS011;35029;50.804;12.866;2022-10-04T18:16:53;4.70;;;3.47;;
49193;SDS011;35029;50.804;12.866;2022-10-04T18:22:16;3.08;;;2.50;;
49193;SDS011;35029;50.804;12.866;2022-10-04T18:24:44;4.32;;;2.83;;
49193;SDS011;35029;50.804;12.866;2022-10-04T18:27:30;4.57;;;2.70;;
49193;SDS011;35029;50.804;12.866;2022-10-04T18:34:53;6.85;;;3.45;;
49193;SDS011;35029;50.804;12.866;2022-10-04T18:37:31;3.42;;;2.55;;
49193;SDS011;35029;50.804;12.866;2022-10-04T18:40:09;4.57;;;3.13;;
49193;SDS011;35029;50.804;12.866;2022-10-04T18:42:39;9.23;;;3.92;;
49193;SDS011;35029;50.804;12.866;2022-10-04T18:45:28;6.57;;;3.72;;
49193;SDS011;35029;50.804;12.866;2022-10-04T18:47:57;5.03;;;4.40;;
49193;SDS011;35029;50.804;12.866;2022-10-04T18:50:36;8.75;;;4.00;;
49193;SDS011;35029;50.804;12.866;2022-10-04T18:56:06;7.70;;;3.88;;
49193;SDS011;35029;50.804;12.866;2022-10-04T19:04:59;3.38;;;2.65;;
49193;SDS011;35029;50.804;12.866;2022-10-04T19:07:42;4.03;;;2.67;;
49193;SDS011;35029;50.804;12.866;2022-10-04T19:10:24;3.58;;;3.05;;
49193;SDS011;35029;50.804;12.866;2022-10-04T19:13:00;4.45;;;2.95;;
49193;SDS011;35029;50.804;12.866;2022-10-04T19:20:58;4.50;;;3.20;;
49193;SDS011;35029;50.804;12.866;2022-10-04T19:26:21;7.57;;;3.00;;
49193;SDS011;35029;50.804;12.866;2022-10-04T19:32:01;4.53;;;2.90;;
49193;SDS011;35029;50.804;12.866;2022-10-04T19:34:52;5.65;;;3.13;;
49193;SDS011;35029;50.804;12.866;2022-10-04T19:51:50;5.20;;;3.47;;
49193;SDS011;35029;50.804;12.866;2022-10-04T19:54:29;21.77;;;13.13;;
49193;SDS011;35029;50.804;12.866;2022-10-04T19:57:00;9.23;;;5.75;;
49193;SDS011;35029;50.804;12.866;2022-10-04T19:59:38;11.98;;;4.60;;
49193;SDS011;35029;50.804;12.866;2022-10-04T20:02:09;10.52;;;3.85;;
49193;SDS011;35029;50.804;12.866;2022-10-04T20:04:36;6.72;;;3.90;;
49193;SDS011;35029;50.804;12.866;2022-10-04T20:07:03;8.55;;;4.35;;
49193;SDS011;35029;50.804;12.866;2022-10-04T20:12:02;9.60;;;4.28;;
49193;SDS011;35029;50.804;12.866;2022-10-04T20:21:53;8.55;;;4.65;;
49193;SDS011;35029;50.804;12.866;2022-10-04T20:27:02;8.90;;;4.47;;
49193;SDS011;35029;50.804;12.866;2022-10-04T20:32:07;5.88;;;3.72;;
49193;SDS011;35029;50.804;12.866;2022-10-04T20:35:03;7.13;;;4.03;;
49193;SDS011;35029;50.804;12.866;2022-10-04T20:40:41;8.65;;;3.90;;
49193;SDS011;35029;50.804;12.866;2022-10-04T20:45:41;4.18;;;3.45;;
49193;SDS011;35029;50.804;12.866;2022-10-04T20:48:15;7.38;;;3.60;;
49193;SDS011;35029;50.804;12.866;2022-10-04T20:50:45;4.93;;;3.47;;
49193;SDS011;35029;50.804;12.866;2022-10-04T20:58:51;4.85;;;3.38;;
49193;SDS011;35029;50.804;12.866;2022-10-04T21:06:53;3.13;;;2.70;;
49193;SDS011;35029;50.804;12.866;2022-10-04T21:09:20;5.20;;;2.88;;
49193;SDS011;35029;50.804;12.866;2022-10-04T21:11:47;6.53;;;3.40;;
49193;SDS011;35029;50.804;12.866;2022-10-04T21:14:22;4.72;;;2.38;;
49193;SDS011;35029;50.804;12.866;2022-10-04T21:16:55;3.20;;;2.70;;
49193;SDS011;35029;50.804;12.866;2022-10-04T21:19:29;5.03;;;2.33;;
49193;SDS011;35029;50.804;12.866;2022-10-04T21:21:55;2.42;;;2.10;;
49193;SDS011;35029;50.804;12.866;2022-10-04T21:25:04;3.35;;;2.22;;
49193;SDS011;35029;50.804;12.866;2022-10-04T21:27:29;3.90;;;2.33;;
49193;SDS011;35029;50.804;12.866;2022-10-04T21:29:57;3.40;;;2.42;;
49193;SDS011;35029;50.804;12.866;2022-10-04T21:32:25;4.50;;;2.10;;
49193;SDS011;35029;50.804;12.866;2022-10-04T21:34:52;3.13;;;2.08;;
49193;SDS011;35029;50.804;12.866;2022-10-04T21:37:18;3.88;;;2.30;;
49193;SDS011;35029;50.804;12.866;2022-10-04T21:39:44;2.35;;;2.15;;
49193;SDS011;35029;50.804;12.866;2022-10-04T21:42:10;3.83;;;2.75;;
49193;SDS011;35029;50.804;12.866;2022-10-04T21:44:36;3.92;;;2.28;;
49193;SDS011;35029;50.804;12.866;2022-10-04T21:47:22;3.10;;;2.50;;
49193;SDS011;35029;50.804;12.866;2022-10-04T21:49:48;3.58;;;2.10;;
49193;SDS011;35029;50.804;12.866;2022-10-04T21:52:16;4.78;;;2.30;;
49193;SDS011;35029;50.804;12.866;2022-10-04T21:54:42;3.45;;;2.63;;
49193;SDS011;35029;50.804;12.866;2022-10-04T21:57:09;4.32;;;3.13;;
49193;SDS011;35029;50.804;12.866;2022-10-04T21:59:35;4.80;;;2.53;;
49193;SDS011;35029;50.804;12.866;2022-10-04T22:02:07;3.83;;;3.05;;
49193;SDS011;35029;50.804;12.866;2022-10-04T22:04:34;5.82;;;2.85;;
49193;SDS011;35029;50.804;12.866;2022-10-04T22:06:59;5.68;;;2.50;;
49193;SDS011;35029;50.804;12.866;2022-10-04T22:09:25;4.28;;;2.80;;
49193;SDS011;35029;50.804;12.866;2022-10-04T22:11:50;4.35;;;2.40;;
49193;SDS011;35029;50.804;12.866;2022-10-04T22:14:16;2.15;;;1.75;;
49193;SDS011;35029;50.804;12.866;2022-10-04T22:16:41;5.28;;;2.13;;
49193;SDS011;35029;50.804;12.866;2022-10-04T22:19:11;3.30;;;2.40;;
49193;SDS011;35029;50.804;12.866;2022-10-04T22:21:36;1.60;;;1.50;;
49193;SDS011;35029;50.804;12.866;2022-10-04T22:24:02;4.30;;;1.90;;
49193;SDS011;35029;50.804;12.866;2022-10-04T22:26:28;5.75;;;2.25;;
49193;SDS011;35029;50.804;12.866;2022-10-04T22:28:55;5.32;;;1.80;;
49193;SDS011;35029;50.804;12.866;2022-10-04T22:31:25;3.42;;;1.80;;
49193;SDS011;35029;50.804;12.866;2022-10-04T22:33:52;3.28;;;1.80;;
49193;SDS011;35029;50.804;12.866;2022-10-04T22:36:20;1.70;;;1.58;;
49193;SDS011;35029;50.804;12.866;2022-10-04T22:39:09;5.15;;;1.77;;
49193;SDS011;35029;50.804;12.866;2022-10-04T22:41:56;2.55;;;1.98;;
49193;SDS011;35029;50.804;12.866;2022-10-04T22:44:25;3.00;;;1.67;;
49193;SDS011;35029;50.804;12.866;2022-10-04T22:47:01;4.65;;;2.00;;
49193;SDS011;35029;50.804;12.866;2022-10-04T22:49:33;3.75;;;2.35;;
49193;SDS011;35029;50.804;12.866;2022-10-04T22:52:05;5.25;;;2.10;;
49193;SDS011;35029;50.804;12.866;2022-10-04T22:54:37;7.43;;;2.35;;
49193;SDS011;35029;50.804;12.866;2022-10-04T22:57:08;4.72;;;2.15;;
49193;SDS011;35029;50.804;12.866;2022-10-04T22:59:39;2.10;;;1.90;;
49193;SDS011;35029;50.804;12.866;2022-10-04T23:04:41;5.78;;;1.90;;
49193;SDS011;35029;50.804;12.866;2022-10-04T23:07:09;2.35;;;1.65;;
49193;SDS011;35029;50.804;12.866;2022-10-04T23:09:35;3.53;;;2.00;;
49193;SDS011;35029;50.804;12.866;2022-10-04T23:12:01;5.90;;;1.98;;
49193;SDS011;35029;50.804;12.866;2022-10-04T23:14:26;2.60;;;1.77;;
49193;SDS011;35029;50.804;12.866;2022-10-04T23:16:52;3.42;;;2.00;;
49193;SDS011;35029;50.804;12.866;2022-10-04T23:19:18;2.22;;;1.75;;
49193;SDS011;35029;50.804;12.866;2022-10-04T23:21:48;4.28;;;2.13;;
49193;SDS011;35029;50.804;12.866;2022-10-04T23:24:18;3.55;;;1.85;;
49193;SDS011;35029;50.804;12.866;2022-10-04T23:26:46;7.22;;;2.05;;
49193;SDS011;35029;50.804;12.866;2022-10-04T23:29:20;3.28;;;1.80;;
49193;SDS011;35029;50.804;12.866;2022-10-04T23:31:50;5.70;;;1.90;;
49193;SDS011;35029;50.804;12.866;2022-10-04T23:34:49;5.80;;;1.92;;
49193;SDS011;35029;50.804;12.866;2022-10-04T23:39:56;2.83;;;1.55;;
49193;SDS011;35029;50.804;12.866;2022-10-04T23:42:26;2.97;;;1.67;;
49193;SDS011;35029;50.804;12.866;2022-10-04T23:44:56;4.72;;;1.75;;
49193;SDS011;35029;50.804;12.866;2022-10-04T23:47:24;2.38;;;1.88;;
49193;SDS011;35029;50.804;12.866;2022-10-04T23:49:58;2.70;;;1.65;;
49193;SDS011;35029;50.804;12.866;2022-10-04T23:52:26;2.60;;;1.60;;
49193;SDS011;35029;50.804;12.866;2022-10-04T23:55:00;3.45;;;1.60;;
49193;SDS011;35029;50.804;12.866;2022-10-04T23:57:27;2.17;;;1.98;;
49193;SDS011;35029;50.804;12.866;2022-10-04T23:59:56;3.47;;;1.42;;
